www.nordhorn-wetter.com
Wetterdaten: aktuell Sonntag, 03.05.2026 23:44
Datum Zeit Temp. A. BodenT -5cm Temp +10cm Extra Temp Feuchte A. BlattFeuchte Bod.Feu -5cm Luftdruck Regen Wind Richtung Richtung Sonnenschein ET UV Solar Taupunkt Windböen Empfang
03.05.2026 23:44 14,2 °C 16,7 °C 13,9 °C 15,1 °C 96 % 2 lf 6 cb 1010,3 hPa 0,0 mm 0,0 km/h (0 Bft) W-NW 286 ° 0 min 0,000 mm 0,0 UV-I 0 W/m² 13,6 °C 0,0 km/h (0 Bft) 86,96 %
03.05.2026 22:44 14,2 °C 16,7 °C 13,9 °C 15,7 °C 95 % 4 lf 6 cb 1010,2 hPa 0,0 mm 0,1 km/h (0 Bft) W-NW 286 ° 0 min 0,000 mm 0,0 UV-I 0 W/m² 13,4 °C 1,6 km/h (1 Bft) 100,00 %
03.05.2026 21:44 14,1 °C 17,2 °C 13,9 °C 15,7 °C 95 % 8 lf 6 cb 1010,2 hPa 0,0 mm 5,6 km/h (2 Bft) S 187 ° 0 min 0,000 mm 0,0 UV-I 0 W/m² 13,3 °C 9,7 km/h (2 Bft) 100,00 %
03.05.2026 20:44 14,2 °C 17,2 °C 13,9 °C 16,2 °C 94 % 13 lf 6 cb 1009,9 hPa 0,0 mm 4,2 km/h (1 Bft) SW 226 ° 0 min 0,000 mm 0,0 UV-I 0 W/m² 13,2 °C 6,4 km/h (2 Bft) 95,83 %
03.05.2026 19:44 14,3 °C 17,8 °C 14,4 °C 16,2 °C 94 % 15 lf 6 cb 1009,3 hPa 0,0 mm 7,9 km/h (2 Bft) S 184 ° 0 min 0,000 mm 0,0 UV-I 0 W/m² 13,3 °C 12,9 km/h (3 Bft) 100,00 %
03.05.2026 18:44 14,9 °C 18,3 °C 14,4 °C 16,8 °C 96 % 15 lf 5 cb 1009,4 hPa 1,2 mm 1,7 km/h (1 Bft) S 182 ° 0 min 0,025 mm 0,0 UV-I 0 W/m² 14,3 °C 3,2 km/h (1 Bft) 91,30 %
03.05.2026 17:44 15,0 °C 18,3 °C 14,4 °C 16,8 °C 94 % 15 lf 7 cb 1009,4 hPa 5,6 mm 3,8 km/h (1 Bft) W-SW 251 ° 0 min 0,102 mm 0,0 UV-I 0 W/m² 14,0 °C 6,4 km/h (2 Bft) 95,65 %
03.05.2026 16:44 18,5 °C 18,9 °C 18,3 °C 17,3 °C 82 % 3 lf 7 cb 1008,8 hPa 0,0 mm 5,0 km/h (1 Bft) SW 224 ° 0 min 0,127 mm 1,4 UV-I 92 W/m² 15,4 °C 8,0 km/h (2 Bft) 87,50 %
03.05.2026 15:44 19,5 °C 18,9 °C 18,9 °C 17,3 °C 76 % 0 lf 7 cb 1008,6 hPa 0,0 mm 14,3 km/h (3 Bft) S 175 ° 0 min 0,178 mm 0,0 UV-I 28 W/m² 15,2 °C 22,5 km/h (4 Bft) 95,65 %
03.05.2026 14:44 21,2 °C 18,9 °C 21,1 °C 16,8 °C 72 % 0 lf 7 cb 1008,7 hPa 0,0 mm 9,9 km/h (2 Bft) SW 231 ° 6 min 0,305 mm 1,8 UV-I 196 W/m² 15,9 °C 12,9 km/h (3 Bft) 100,00 %
03.05.2026 13:44 22,3 °C 18,3 °C 23,3 °C 16,8 °C 69 % 0 lf 7 cb 1008,8 hPa 0,0 mm 6,4 km/h (2 Bft) SO 132 ° 36 min 0,279 mm 4,9 UV-I 434 W/m² 16,3 °C 12,9 km/h (3 Bft) 100,00 %
03.05.2026 12:44 21,6 °C 17,8 °C 22,2 °C 16,2 °C 71 % 0 lf 7 cb 1009,0 hPa 0,0 mm 7,6 km/h (2 Bft) SO 126 ° 2 min 0,254 mm 5,7 UV-I 462 W/m² 16,1 °C 14,5 km/h (3 Bft) 91,67 %
03.05.2026 11:44 20,9 °C 17,2 °C 21,7 °C 15,7 °C 73 % 0 lf 7 cb 1009,2 hPa 0,0 mm 5,3 km/h (1 Bft) SO 140 ° 43 min 0,203 mm 4,4 UV-I 395 W/m² 15,9 °C 8,0 km/h (2 Bft) 100,00 %
03.05.2026 10:44 19,7 °C 16,7 °C 20,6 °C 15,1 °C 80 % 0 lf 7 cb 1009,5 hPa 0,0 mm 4,0 km/h (1 Bft) S-SO 160 ° 14 min 0,127 mm 5,5 UV-I 404 W/m² 16,1 °C 6,4 km/h (2 Bft) 95,83 %
03.05.2026 09:44 17,6 °C 16,1 °C 16,7 °C 15,1 °C 87 % 0 lf 7 cb 1010,0 hPa 0,0 mm 4,8 km/h (1 Bft) O-SO 118 ° 0 min 0,051 mm 3,0 UV-I 233 W/m² 15,4 °C 8,0 km/h (2 Bft) 100,00 %
03.05.2026 08:44 15,8 °C 16,1 °C 15,0 °C 15,1 °C 93 % 0 lf 7 cb 1010,4 hPa 0,0 mm 2,4 km/h (1 Bft) SO 125 ° 0 min 0,000 mm 3,0 UV-I 137 W/m² 14,7 °C 4,8 km/h (1 Bft) 100,00 %
03.05.2026 07:42 14,1 °C 16,1 °C 13,9 °C 15,1 °C 97 % 15 lf 7 cb 1010,4 hPa 0,0 mm 1,0 km/h (0 Bft) O-SO 107 ° 0 min 0,000 mm 0,0 UV-I 0 W/m² 13,6 °C 4,8 km/h (1 Bft) 95,83 %
03.05.2026 06:41 13,8 °C 16,1 °C 13,3 °C 15,1 °C 97 % 15 lf 7 cb 1010,3 hPa 1,8 mm 1,6 km/h (1 Bft) O-SO 107 ° 0 min 0,000 mm 0,0 UV-I 0 W/m² 13,3 °C 3,2 km/h (1 Bft) 96,30 %
03.05.2026 05:41 13,7 °C 16,7 °C 13,3 °C 15,7 °C 97 % 15 lf 7 cb 1010,5 hPa 1,6 mm 2,3 km/h (1 Bft) O 100 ° 0 min 0,000 mm 0,0 UV-I 0 W/m² 13,2 °C 4,8 km/h (1 Bft) 100,00 %
03.05.2026 04:41 13,9 °C 16,7 °C 13,3 °C 15,7 °C 96 % 15 lf 8 cb 1011,6 hPa 1,0 mm 0,9 km/h (0 Bft) S-SW 192 ° 0 min 0,000 mm 0,0 UV-I 0 W/m² 13,3 °C 4,8 km/h (1 Bft) 95,65 %
03.05.2026 03:41 13,7 °C 17,2 °C 13,3 °C 16,2 °C 95 % 15 lf 7 cb 1011,3 hPa 0,0 mm 0,0 km/h (0 Bft) S 173 ° 0 min 0,000 mm 0,0 UV-I 0 W/m² 12,9 °C 0,0 km/h (0 Bft) 100,00 %
03.05.2026 02:41 14,4 °C 17,8 °C 13,9 °C 16,2 °C 95 % 15 lf 7 cb 1011,8 hPa 0,0 mm 1,9 km/h (1 Bft) S 175 ° 0 min 0,000 mm 0,0 UV-I 0 W/m² 13,6 °C 3,2 km/h (1 Bft) 96,15 %
03.05.2026 01:41 14,8 °C 17,8 °C 14,4 °C 16,8 °C 95 % 15 lf 7 cb 1013,1 hPa 0,0 mm 4,8 km/h (1 Bft) SW 233 ° 0 min 0,000 mm 0,0 UV-I 0 W/m² 14,0 °C 8,0 km/h (2 Bft) 95,65 %
03.05.2026 00:41 15,3 °C 18,3 °C 15,0 °C 16,8 °C 95 % 15 lf 6 cb 1012,8 hPa 0,0 mm 1,9 km/h (1 Bft) SO 129 ° 0 min 0,000 mm 0,0 UV-I 0 W/m² 14,5 °C 6,4 km/h (2 Bft) 89,66 %
03.05.2026 00:00 15,3 °C 18,9 °C 15,0 °C 17,3 °C 95 % 15 lf 6 cb 1012,7 hPa 0,0 mm 1,1 km/h (1 Bft) O 101 ° 0 min 0,000 mm 0,0 UV-I 0 W/m² 14,5 °C 3,2 km/h (1 Bft) 100,00 %
_ Min-Zeit 05:56 10:39 06:57 23:44 16:25 16:54 19:12 15:46 - 23:44 - - - - - - 04:10 23:44 16:06
Minimum _ 13,6 °C 16,1 °C 13,3 °C 15,1 °C 67 % 0 lf 5 cb 1008,5 hPa - 0,0 km/h (0 Bft) - - - - - - 12,9 °C 0,0 km/h (0 Bft) 78,26 %
_ Max-Zeit 13:53 17:27 13:54 16:52 08:02 20:21 05:35 01:41 17:34 15:41 - - 13:52 14:03 13:15 13:15 13:51 15:41 23:43
Maximum _ 22,5 °C 18,9 °C 23,3 °C 17,3 °C 97 % 15 lf 8 cb 1013,1 hPa 0,6 mm 20,3 km/h
SW (4 Bft)
- - 1 min 0,305 mm 7,4 UV-I 542 W/m² 16,7 °C 27,4 km/h
W-SW (5 Bft)
100,00 %
Durchschnitt _ 16,3 °C 17,4 °C 16,2 °C 16,1 °C 89 % 8 lf 7 cb 1010,2 hPa #11,2 mm 4,3 km/h (1 Bft) S - #1:41 h #1,651 mm 3,7 UV-I 268 W/m² 14,3 °C 7,4 km/h (2 Bft) 96,82 %
© 2006-2026 Nordhorn-Wetter.com